Aeroporto :
LOGIN :

Iscrizione | Disclaimer

   EN    FR    IT 

 










Sommario :    VFR   VFR Marginale   IFR   IFR Intensivo   IFR Molto Intensivo
Visibilità : 
Base nubi : 
>= 8 km
>= 3000ft
5 / 8 km
1000 / 3000 ft
1500m / 5 km
500 / 1000 ft
800 / 1500m
200 / 500 ft
< 800m
< 200 ft
Simboli :   Temporali  Nebbia  Neve Forte  Precipitazioni Forti  Vento > 20 kt
SIGMETs :   Varie  Temporali  Ghiacco  Turbolenza  Onda orograficha  Ceneri Vulcaniche






- Altitudine del aeroporto : 2936 ft


LECH - Calamocha

ULTIMO METAR :
  • 301030Z AUTO 36006KT 320V030 9999 BKN047 09/01 Q1014

METARs OBSOLETI :
  • 301000Z AUTO 36007KT 330V040 9999 BKN050 OVC060 09/01 Q1014
  • 300930Z AUTO 02009KT 350V050 9000 BKN050 OVC060 08/02 Q1014
  • 300900Z AUTO 02007KT 340V050 9999 -RA SCT050 BKN060 08/03 Q1014
  • 300830Z AUTO 02006KT 350V050 9000 OVC050 09/01 Q1014
  • 300800Z AUTO 03006KT 340V080 8000 OVC060 10/03 Q1013
  • 300730Z AUTO 03004KT 010V070 9999 BKN060 10/03 Q1013

Previsioni scadute.



MetMap, La meteo Aeronautica in un colpo d'occhio ! - Copyright ORBIFLY Dicembre 2007 - Disclaimer

ORBIFLY MET'MAP TEAM :

Programmazione e sviluppo : Alexandra Zaïnal
Concezione : Baudouin d'Aumeries
Aiuto per la programmazione : Marc-Olivier Méhu
Supporto tecnico e logistico : Manuel Goepfert
Aiuto per la traduzione : Arnaldo La Scala

Contatto : metmap@orbifly.com




FONTI E CREDITI :

   NOAA